Macks Creek, Missouri
Current Conditions -  °F | °C
As of 11:55 PM on Monday 26 Jan 2015 (Local Time) from KH21 Reporting Station
Clear Clear  
Wind Chill:   Ceiling: Unl
Heat Index:   Visibility: 10mi
Dew Point:   Wind: 9mph
Humidity: 66%   Direction: 290°WNW
Pressure: 29.99"   Gusts: NA
Location:  37.97°N, 92.97°W
Report Text: KH21 270555Z AUTO 29008KT 10SM CLR 07/01 A2999 RMK AO2
Loading
Personal Weather Stations






























Interactive Weather Map New forecast layout! Learn more

10-Day Weather Forecast

Advertisements
Track Severe Weather on mobile